Flight Track Log - Related Links

Times and Time Zones

All times are in EDT time to prevent confusion due to time zone crossing. See the JBU106 flight status page for this flight to view local times or setup timezone preferences in your user account.


Time Position Orientation Groundspeed Altitude Reporting Facility
EDT Latitude Longitude Course Direction KTS MPH feet Rate Location/Type
Fri 05:52:15 PM 33.9439 -118.4631 90° East 162 186 2,000  Level Los Angeles Center
Fri 05:53:17 PM 33.9114 -118.5061 228° Southwest 227 261 2,800 1,645 Climbing Los Angeles Center
Fri 05:54:19 PM 33.8306 -118.5097 182° South 270 311 5,400 2,613 Climbing Los Angeles Center
Fri 05:55:00 PM 33.6780 -118.4848 101° East  Level FlightAware Approximate
Fri 05:55:21 PM 33.7447 -118.5172 184° South 292 336 8,200  Level Los Angeles Center
Fri 05:56:00 PM 33.6404 -118.3509 116° Southeast  Level FlightAware Approximate
Fri 05:56:23 PM 33.6911 -118.4539 135° Southeast 288 331 10,700  Level Los Angeles Center
Fri 05:57:00 PM 33.6333 -118.2104 90° East  Level FlightAware Approximate
Fri 05:57:25 PM 33.6533 -118.3639 117° Southeast 301 346 12,300  Level Los Angeles Center
Fri 05:58:27 PM 33.6439 -118.2600 96° East 327 376 14,100 1,548 Climbing Los Angeles Center
Fri 05:59:29 PM 33.6444 -118.1169 90° East 358 412 15,500 1,536 Climbing Los Angeles Center
Fri 06:00:32 PM 33.6447 -117.9897 90° East 382 440 17,300 1,728 Climbing Los Angeles Center
Fri 06:01:34 PM 33.6442 -117.8578 90° East 395 455 19,100 1,597 Climbing Los Angeles Center
Fri 06:02:36 PM 33.6433 -117.7239 90° East 402 463 20,600 1,452 Climbing Los Angeles Center
Fri 06:03:38 PM 33.6428 -117.5869 90° East 410 472 22,100 1,403 Climbing Los Angeles Center
Fri 06:04:40 PM 33.6419 -117.4192 90° East 420 483 23,500 1,258 Climbing Los Angeles Center
Fri 06:05:42 PM 33.6406 -117.2756 91° East 431 496 24,700 1,210 Climbing Los Angeles Center
Fri 06:06:44 PM 33.6392 -117.1289 91° East 438 504 26,000 1,113 Climbing Los Angeles Center
Fri 06:07:46 PM 33.6383 -116.9828 90° East 440 506 27,000 919 Climbing Los Angeles Center
Fri 06:08:48 PM 33.6719 -116.8247 76° East 446 513 27,900 1,016 Climbing Los Angeles Center
Fri 06:09:50 PM 33.7031 -116.6783 76° East 450 518 29,100 1,065 Climbing Los Angeles Center
Fri 06:10:52 PM 33.7328 -116.5342 76° East 447 514 30,100 960 Climbing Los Angeles Center
Fri 06:11:55 PM 33.7636 -116.3911 75° East 443 510 31,100 1,056 Climbing Los Angeles Center
Fri 06:12:57 PM 33.7919 -116.2481 77° East 440 506 32,300 919 Climbing Los Angeles Center
Fri 06:13:59 PM 33.8267 -116.0767 76° East 438 504 33,000 339 Climbing Los Angeles Center
Fri 06:15:01 PM 33.8539 -115.9378 77° East 430 495 33,000  Level Los Angeles Center
Fri 06:16:03 PM 33.8822 -115.7964 76° East 433 498 33,000  Level Los Angeles Center
Fri 06:17:05 PM 33.9106 -115.6536 77° East 437 503 33,000  Level Los Angeles Center
Fri 06:18:07 PM 33.9386 -115.5094 77° East 442 509 33,000  Level Los Angeles Center
Fri 06:19:09 PM 33.9678 -115.3667 76° East 439 505 33,000 -48 Level Los Angeles Center
Fri 06:20:11 PM 34.0003 -115.1981 77° East 433 498 32,900 -48 Descending Los Angeles Center
Fri 06:21:13 PM 34.0289 -115.0558 76° East 436 502 32,900  Level Los Angeles Center
Fri 06:22:15 PM 34.0558 -114.9144 77° East 437 503 32,900 48 Level Los Angeles Center
Fri 06:23:18 PM 34.0842 -114.7708 77° East 440 506 33,000 48 Climbing Los Angeles Center
Fri 06:24:20 PM 34.1067 -114.6256 79° East 441 507 33,000  Level Los Angeles Center
Fri 06:25:22 PM 34.1183 -114.4750 85° East 450 518 33,000  Level Los Angeles Center
Fri 06:26:24 PM 34.1311 -114.2975 85° East 445 512 33,000  Level Los Angeles Center
Fri 06:26:40 PM 34.1358 -114.2661 80° East 447 514 33,000  Level Albuquerque Center
Fri 06:27:42 PM 34.1469 -114.1189 85° East 442 509 33,000  Level Albuquerque Center
Fri 06:28:43 PM 34.1592 -113.9722 84° East 441 507 33,000  Level Albuquerque Center
Fri 06:29:45 PM 34.1689 -113.8269 85° East 437 503 33,000  Level Albuquerque Center
Fri 06:30:47 PM 34.1811 -113.6544 85° East 432 497 33,000  Level Albuquerque Center
Fri 06:31:49 PM 34.1911 -113.5178 85° East 437 503 33,000  Level Albuquerque Center
Fri 06:32:51 PM 34.2008 -113.3700 85° East 441 507 33,000 48 Level Albuquerque Center
Fri 06:33:53 PM 34.2106 -113.2206 85° East 444 511 33,100  Climbing Albuquerque Center
Fri 06:34:54 PM 34.2217 -113.0728 85° East 444 511 33,000 -98 Descending Albuquerque Center
Fri 06:35:56 PM 34.2322 -112.8967 86° East 440 506 32,900  Descending Albuquerque Center
Fri 06:36:58 PM 34.2433 -112.7492 85° East 440 506 33,000 48 Climbing Albuquerque Center
Fri 06:38:00 PM 34.2528 -112.6000 86° East 443 510 33,000 435 Level Albuquerque Center
Fri 06:39:02 PM 34.2586 -112.4514 87° East 444 511 33,900 780 Climbing Albuquerque Center
Fri 06:40:03 PM 34.2631 -112.3047 88° East 439 505 34,600 537 Climbing Albuquerque Center
Fri 06:41:05 PM 34.2678 -112.1572 88° East 438 504 35,000 194 Climbing Albuquerque Center
Fri 06:42:07 PM 34.2733 -112.0108 87° East 436 502 35,000  Level Albuquerque Center
Fri 06:43:09 PM 34.2786 -111.8625 87° East 437 503 35,000  Level Albuquerque Center
Fri 06:44:11 PM 34.2831 -111.6822 88° East 441 507 35,000  Level Albuquerque Center
Fri 06:45:12 PM 34.2878 -111.5342 88° East 439 505 35,000  Level Albuquerque Center
Fri 06:46:14 PM 34.2925 -111.3861 88° East 439 505 35,000  Level Albuquerque Center
Fri 06:47:16 PM 34.2967 -111.2400 88° East 437 503 35,000  Level Albuquerque Center
Fri 06:48:18 PM 34.3006 -111.0942 88° East 435 501 35,000  Level Albuquerque Center
Fri 06:49:20 PM 34.3039 -110.9503 88° East 431 496 35,000  Level Albuquerque Center
Fri 06:50:21 PM 34.3083 -110.8044 88° East 432 497 35,000  Level Albuquerque Center
Fri 06:51:23 PM 34.3131 -110.6606 88° East 431 496 35,000  Level Albuquerque Center
Fri 06:52:25 PM 34.3169 -110.4858 88° East 432 497 35,000  Level Albuquerque Center
Fri 06:53:27 PM 34.3192 -110.3503 89° East 437 503 35,000  Level Albuquerque Center
Fri 06:54:29 PM 34.3219 -110.1872 89° East 437 503 35,000  Level Albuquerque Center
Fri 06:55:30 PM 34.3247 -110.0494 89° East 431 496 35,000  Level Albuquerque Center
Fri 06:56:32 PM 34.3272 -109.8892 89° East 428 493 35,000  Level Albuquerque Center
Fri 06:57:34 PM 34.3294 -109.7522 89° East 428 493 35,000  Level Albuquerque Center
Fri 06:58:35 PM 34.3319 -109.5906 89° East 429 494 35,000 49 Level Albuquerque Center
Fri 06:59:37 PM 34.3336 -109.4503 89° East 433 498 35,100  Climbing Albuquerque Center
Fri 07:00:39 PM 34.3350 -109.2897 89° East 431 496 35,000 -49 Descending Albuquerque Center
Fri 07:01:40 PM 34.3364 -109.1533 89° East 427 491 35,000  Level Albuquerque Center
Fri 07:02:42 PM 34.3389 -109.0169 89° East 426 490 35,000  Level Albuquerque Center
Fri 07:03:44 PM 34.3400 -108.8572 89° East 426 490 35,000  Level Albuquerque Center
Fri 07:04:45 PM 34.3406 -108.7200 90° East 426 490 35,000  Level Albuquerque Center
Fri 07:05:47 PM 34.3414 -108.5578 90° East 430 495 35,000  Level Albuquerque Center
Fri 07:06:49 PM 34.3431 -108.4303 89° East 430 495 35,000  Level Albuquerque Center
Fri 07:07:50 PM 34.3425 -108.2886 90° East 426 490 35,000  Level Albuquerque Center
Fri 07:08:52 PM 34.3439 -108.1200 89° East 422 486 35,000  Level Albuquerque Center
Fri 07:09:54 PM 34.3431 -107.9769 90° East 425 489 35,000  Level Albuquerque Center
Fri 07:10:55 PM 34.3436 -107.8303 90° East 434 499 35,000 49 Level Albuquerque Center
Fri 07:11:57 PM 34.3425 -107.6828 90° East 439 505 35,100  Climbing Albuquerque Center
Fri 07:12:59 PM 34.3428 -107.5369 90° East 439 505 35,000 -49 Descending Albuquerque Center
Fri 07:14:00 PM 34.3417 -107.3919 90° East 436 502 35,000  Level Albuquerque Center
Fri 07:15:02 PM 34.3408 -107.2197 90° East 431 496 35,000  Level Albuquerque Center
Fri 07:16:04 PM 34.3403 -107.0736 90° East 436 502 35,000  Level Albuquerque Center
Fri 07:17:05 PM 34.3381 -106.9244 91° East 444 511 35,000  Level Albuquerque Center
Fri 07:18:07 PM 34.3361 -106.7692 91° East 457 526 35,000 48 Level Albuquerque Center
Fri 07:19:09 PM 34.3353 -106.6164 90° East 460 529 35,100  Climbing Albuquerque Center
Fri 07:20:10 PM 34.3328 -106.4642 91° East 457 526 35,000 -49 Descending Albuquerque Center
Fri 07:21:12 PM 34.3303 -106.2808 91° East 458 527 35,000  Level Albuquerque Center
Fri 07:22:14 PM 34.3289 -106.1375 91° East 452 520 35,000  Level Albuquerque Center
Fri 07:23:15 PM 34.3272 -105.9828 91° East 455 524 35,000  Level Albuquerque Center
Fri 07:24:17 PM 34.3222 -105.8286 92° East 455 524 35,000  Level Albuquerque Center
Fri 07:25:18 PM 34.3219 -105.6528 90° East 448 516 35,000  Level Albuquerque Center
Fri 07:26:20 PM 34.3183 -105.5017 92° East 446 513 35,000  Level Albuquerque Center
Fri 07:27:22 PM 34.3150 -105.3511 91° East 445 512 35,000  Level Albuquerque Center
Fri 07:28:23 PM 34.3111 -105.1964 92° East 452 520 35,000 49 Level Albuquerque Center
Fri 07:29:25 PM 34.3081 -105.0425 91° East 455 524 35,100  Climbing Albuquerque Center
Fri 07:30:26 PM 34.3047 -104.8875 91° East 457 526 35,000 -49 Descending Albuquerque Center
Fri 07:31:28 PM 34.3008 -104.7322 92° East 458 527 35,000  Level Albuquerque Center
Fri 07:32:30 PM 34.2969 -104.5747 92° East 464 534 35,000  Level Albuquerque Center
Fri 07:33:31 PM 34.2925 -104.4186 92° East 464 534 35,000  Level Albuquerque Center
Fri 07:34:33 PM 34.2878 -104.2383 92° East 458 527 35,000  Level Albuquerque Center
Fri 07:35:34 PM 34.2831 -104.0836 92° East 458 527 35,000  Level Albuquerque Center
Fri 07:36:36 PM 34.2778 -103.9269 92° East 462 532 35,000  Level Albuquerque Center
Fri 07:37:37 PM 34.2728 -103.7708 92° East 462 532 35,000 49 Level Albuquerque Center
Fri 07:38:39 PM 34.2678 -103.6122 92° East 467 537 35,100  Climbing Albuquerque Center
Fri 07:39:40 PM 34.2622 -103.4553 92° East 466 536 35,000 -49 Descending Albuquerque Center
Fri 07:40:42 PM 34.2556 -103.2983 93° East 466 536 35,000  Level Albuquerque Center
Fri 07:41:43 PM 34.2500 -103.1400 92° East 468 539 35,000  Level Albuquerque Center
Fri 07:42:45 PM 34.2428 -102.9786 93° East 469 540 35,000  Level Albuquerque Center
Fri 07:43:46 PM 34.2367 -102.8211 93° East 470 541 35,000  Level Albuquerque Center
Fri 07:44:48 PM 34.2303 -102.6628 93° East 472 543 35,000  Level Albuquerque Center
Fri 07:45:49 PM 34.2219 -102.4736 93° East 473 544 35,000  Level Albuquerque Center
Fri 07:46:51 PM 34.2150 -102.3153 93° East 474 545 35,000  Level Albuquerque Center
Fri 07:47:52 PM 34.2078 -102.1561 93° East 476 548 35,000  Level Albuquerque Center
Fri 07:48:26 PM 34.2039 -102.0589 93° East 475 547 35,000  Level Fort Worth Center
Fri 07:49:26 PM 34.1944 -101.9153 95° East 482 555 35,000  Level Fort Worth Center
Fri 07:50:26 PM 34.1878 -101.7544 93° East 476 548 35,000  Level Fort Worth Center
Fri 07:51:26 PM 34.1811 -101.5783 93° East 482 555 35,000  Level Fort Worth Center
Fri 07:52:26 PM 34.1714 -101.4322 95° East 482 555 35,000  Level Fort Worth Center
Fri 07:53:26 PM 34.1622 -101.2536 93° East 476 548 35,000  Level Fort Worth Center
Fri 07:54:26 PM 34.1542 -101.1078 94° East 488 562 35,000  Level Fort Worth Center
Fri 07:55:26 PM 34.1447 -100.9267 94° East 488 562 35,000  Level Fort Worth Center
Fri 07:56:26 PM 34.1347 -100.7631 94° East 488 562 35,000  Level Fort Worth Center
Fri 07:57:26 PM 34.1264 -100.5997 93° East 483 556 35,000  Level Fort Worth Center
Fri 07:58:26 PM 34.1158 -100.4364 94° East 483 556 35,000  Level Fort Worth Center
Fri 07:59:26 PM 34.1069 -100.2881 94° East 483 556 35,000  Level Fort Worth Center
Fri 08:00:26 PM 34.0958 -100.1272 95° East 483 556 35,000  Level Fort Worth Center
Fri 08:01:26 PM 34.0847 -99.9564 94° East 488 562 35,000  Level Fort Worth Center
Fri 08:02:26 PM 34.0736 -99.7881 95° East 493 567 35,000  Level Fort Worth Center
Fri 08:03:26 PM 34.0619 -99.6172 95° East 498 573 35,000  Level Fort Worth Center
Fri 08:04:26 PM 34.0503 -99.4464 95° East 503 579 35,000  Level Fort Worth Center
Fri 08:05:26 PM 34.0383 -99.2733 95° East 504 580 35,000  Level Fort Worth Center
Fri 08:06:26 PM 34.0261 -99.1075 95° East 504 580 35,000  Level Fort Worth Center
Fri 08:07:26 PM 34.0117 -98.9294 96° East 510 587 35,000  Level Fort Worth Center
Fri 08:08:26 PM 33.9992 -98.7464 95° East 510 587 35,000  Level Fort Worth Center
Fri 08:09:26 PM 33.9822 -98.5783 97° East 505 581 35,000  Level Fort Worth Center
Fri 08:10:26 PM 33.9208 -98.4222 115° Southeast 505 581 35,000  Level Fort Worth Center
Fri 08:11:26 PM 33.8678 -98.2839 115° Southeast 499 574 35,000  Level Fort Worth Center
Fri 08:12:26 PM 33.8019 -98.1158 115° Southeast 499 574 35,000 50 Level Fort Worth Center
Fri 08:13:26 PM 33.7442 -97.9656 115° Southeast 499 574 35,100  Climbing Fort Worth Center
Fri 08:14:26 PM 33.6844 -97.8128 115° Southeast 499 574 35,000 -50 Descending Fort Worth Center
Fri 08:15:26 PM 33.6242 -97.6628 116° Southeast 499 574 35,000  Level Fort Worth Center
Fri 08:16:26 PM 33.5597 -97.5106 117° Southeast 506 582 35,000  Level Fort Worth Center
Fri 08:17:26 PM 33.4992 -97.3586 116° Southeast 508 585 35,000  Level Fort Worth Center
Fri 08:18:26 PM 33.4386 -97.2069 116° Southeast 508 585 35,000  Level Fort Worth Center
Fri 08:19:26 PM 33.3797 -97.0528 115° Southeast 508 585 35,000  Level Fort Worth Center
Fri 08:20:26 PM 33.3186 -96.9014 116° Southeast 503 579 35,000  Level Fort Worth Center
Fri 08:21:26 PM 33.2597 -96.7550 116° Southeast 503 579 35,000  Level Fort Worth Center
Fri 08:22:26 PM 33.1981 -96.6042 116° Southeast 498 573 35,000  Level Fort Worth Center
Fri 08:23:26 PM 33.1431 -96.4706 116° Southeast 498 573 35,000  Level Fort Worth Center
Fri 08:24:26 PM 33.0747 -96.3078 117° Southeast 503 579 35,000 50 Level Fort Worth Center
Fri 08:25:26 PM 33.0194 -96.1772 117° Southeast 492 566 35,100 450 Climbing Fort Worth Center
Fri 08:26:26 PM 32.9508 -96.0122 116° Southeast 492 566 35,900 500 Climbing Fort Worth Center
Fri 08:27:26 PM 32.8950 -95.8769 116° Southeast 492 566 36,100 350 Climbing Fort Worth Center
Fri 08:28:26 PM 32.8239 -95.7078 117° Southeast 508 585 36,600 450 Climbing Fort Worth Center
Fri 08:29:26 PM 32.7528 -95.5533 119° Southeast 508 585 37,000 200 Climbing Fort Worth Center
Fri 08:30:26 PM 32.6878 -95.3992 117° Southeast 514 592 37,000  Level Fort Worth Center
Fri 08:31:26 PM 32.6269 -95.2453 115° Southeast 514 592 37,000  Level Fort Worth Center
Fri 08:32:26 PM 32.5594 -95.0892 117° Southeast 514 592 37,000  Level Fort Worth Center
Fri 08:33:26 PM 32.4917 -94.9331 117° Southeast 514 592 37,000  Level Fort Worth Center
Fri 08:34:26 PM 32.4278 -94.7750 116° Southeast 525 604 37,000  Level Fort Worth Center
Fri 08:35:26 PM 32.3869 -94.6114 106° East 531 611 37,000  Level Fort Worth Center
Fri 08:36:26 PM 32.3517 -94.4403 104° East 525 604 37,000  Level Fort Worth Center
Fri 08:37:26 PM 32.3164 -94.2767 104° East 520 598 37,000  Level Fort Worth Center
Fri 08:38:26 PM 32.2828 -94.1083 103° East 520 598 37,000  Level Fort Worth Center
Fri 08:39:26 PM 32.2467 -93.9353 104° East 525 604 37,000 50 Level Fort Worth Center
Fri 08:40:26 PM 32.2108 -93.7697 104° East 525 604 37,100  Climbing Fort Worth Center
Fri 08:42:00 PM 32.1608 -93.5306 104° East 525 604 37,000 -39 Descending Houston Center
Fri 08:43:01 PM 32.1247 -93.3642 104° East 524 603 37,000  Level Houston Center
Fri 08:44:03 PM 32.0892 -93.1981 104° East 521 600 37,000  Level Houston Center
Fri 08:45:04 PM 32.0464 -93.0025 104° East 513 590 37,000  Level Houston Center
Fri 08:46:06 PM 32.0150 -92.8642 105° East 511 588 37,000 -48 Level Houston Center
Fri 08:47:08 PM 31.9800 -92.7033 104° East 509 586 36,900 -49 Descending Houston Center
Fri 08:48:09 PM 31.9319 -92.5144 107° East 504 580 36,900 49 Level Houston Center
Fri 08:49:11 PM 31.8886 -92.3567 108° East 505 581 37,000 49 Climbing Houston Center
Fri 08:50:12 PM 31.8464 -92.1986 107° East 506 582 37,000  Level Houston Center
Fri 08:51:14 PM 31.8047 -92.0436 108° East 501 577 37,000  Level Houston Center
Fri 08:52:15 PM 31.7631 -91.8908 108° East 502 578 37,000  Level Houston Center
Fri 08:53:17 PM 31.7217 -91.7378 108° East 494 568 37,000  Level Houston Center
Fri 08:54:18 PM 31.6789 -91.5822 108° East 495 570 37,000  Level Houston Center
Fri 08:55:20 PM 31.6269 -91.3972 108° East 497 572 37,000  Level Houston Center
Fri 08:56:21 PM 31.5850 -91.2428 108° East 497 572 37,000  Level Houston Center
Fri 08:57:23 PM 31.5414 -91.0903 109° East 495 570 37,000  Level Houston Center
Fri 08:58:24 PM 31.4967 -90.9378 109° East 494 568 37,000 -49 Level Houston Center
Fri 08:59:26 PM 31.4553 -90.7856 108° East 491 565 36,900  Descending Houston Center
Fri 09:00:27 PM 31.4119 -90.6333 108° East 493 567 37,000 49 Climbing Houston Center
Fri 09:01:29 PM 31.3700 -90.4833 108° East 488 562 37,000 -49 Level Houston Center
Fri 09:02:30 PM 31.3269 -90.3361 109° East 482 555 36,900 -49 Descending Houston Center
Fri 09:03:32 PM 31.2956 -90.1853 104° East 479 551 36,900 49 Level Houston Center
Fri 09:04:33 PM 31.2772 -90.0286 98° East 485 558 37,000  Climbing Houston Center
Fri 09:05:34 PM 31.2547 -89.8425 98° East 482 555 36,900 -49 Descending Houston Center
Fri 09:06:36 PM 31.2358 -89.6869 98° East 481 554 36,900 49 Level Houston Center
Fri 09:07:37 PM 31.2150 -89.5300 99° East 486 559 37,000 49 Climbing Houston Center
Fri 09:08:39 PM 31.1969 -89.3739 98° East 485 558 37,000  Level Houston Center
Fri 09:09:40 PM 31.1747 -89.2122 99° East 498 573 37,000  Level Houston Center
Fri 09:10:42 PM 31.1553 -89.0544 98° East 491 565 37,000  Level Houston Center
Fri 09:11:43 PM 31.1333 -88.8883 99° East 494 568 37,000  Level Houston Center
Fri 09:12:44 PM 31.1122 -88.7294 99° East 495 570 37,000  Level Houston Center
Fri 09:13:46 PM 31.0914 -88.5767 99° East 496 571 37,000  Level Houston Center
Fri 09:14:47 PM 31.0717 -88.4208 98° East 487 560 37,000 -49 Level Houston Center
Fri 09:15:48 PM 31.0450 -88.2281 99° East 498 573 36,900  Descending Houston Center
Fri 09:16:50 PM 31.0247 -88.0686 98° East 499 574 37,000 49 Climbing Houston Center
Fri 09:17:51 PM 31.0028 -87.9092 99° East 499 574 37,000  Level Houston Center
Fri 09:18:52 PM 30.9800 -87.7506 99° East 497 572 37,000  Level Houston Center
Fri 09:19:51 PM 30.9603 -87.6017 99° East 494 568 37,000  Level Jacksonville Center
Fri 09:20:51 PM 30.9389 -87.4433 99° East 494 568 37,000  Level Jacksonville Center
Fri 09:21:51 PM 30.9150 -87.2872 100° East 489 563 37,000 -50 Level Jacksonville Center
Fri 09:22:51 PM 30.8678 -87.1397 110° East 484 557 36,900  Descending Jacksonville Center
Fri 09:23:51 PM 30.7928 -87.0108 124° Southeast 470 541 37,000 50 Climbing Jacksonville Center
Fri 09:24:51 PM 30.7133 -86.8864 127° Southeast 475 547 37,000  Level Jacksonville Center
Fri 09:25:51 PM 30.6378 -86.7603 125° Southeast 475 547 37,000  Level Jacksonville Center
Fri 09:26:51 PM 30.5625 -86.6317 124° Southeast 486 559 37,000 -50 Level Jacksonville Center
Fri 09:27:51 PM 30.4867 -86.5033 124° Southeast 486 559 36,900 -50 Descending Jacksonville Center
Fri 09:28:51 PM 30.4089 -86.3753 125° Southeast 486 559 36,900  Level Jacksonville Center
Fri 09:29:51 PM 30.3308 -86.2497 126° Southeast 486 559 36,900 50 Level Jacksonville Center
Fri 09:30:51 PM 30.2547 -86.1219 125° Southeast 486 559 37,000 50 Climbing Jacksonville Center
Fri 09:31:51 PM 30.1806 -86.0042 126° Southeast 480 552 37,000  Level Jacksonville Center
Fri 09:32:51 PM 30.0981 -85.8694 125° Southeast 469 540 37,000  Level Jacksonville Center
Fri 09:33:51 PM 30.0239 -85.7425 124° Southeast 469 540 37,000  Level Jacksonville Center
Fri 09:34:51 PM 29.9472 -85.6203 126° Southeast 469 540 37,000  Level Jacksonville Center
Fri 09:35:51 PM 29.8703 -85.4986 126° Southeast 474 545 37,000  Level Jacksonville Center
Fri 09:36:51 PM 29.7975 -85.3792 125° Southeast 469 540 37,000  Level Jacksonville Center
Fri 09:37:51 PM 29.7247 -85.2650 126° Southeast 459 528 37,000  Level Jacksonville Center
Fri 09:38:51 PM 29.6517 -85.1486 126° Southeast 454 522 37,000 -50 Level Jacksonville Center
Fri 09:39:51 PM 29.5806 -85.0347 126° Southeast 449 517 36,900 -50 Descending Jacksonville Center
Fri 09:40:51 PM 29.5072 -84.9186 126° Southeast 449 517 36,900 50 Level Jacksonville Center
Fri 09:41:51 PM 29.4339 -84.8000 125° Southeast 454 522 37,000 50 Climbing Jacksonville Center
Fri 09:42:51 PM 29.3625 -84.6797 124° Southeast 454 522 37,000  Level Jacksonville Center
Fri 09:43:51 PM 29.2869 -84.5639 127° Southeast 454 522 37,000 -50 Level Jacksonville Center
Fri 09:44:51 PM 29.2111 -84.4439 126° Southeast 459 528 36,900  Descending Jacksonville Center
Fri 09:45:51 PM 29.1353 -84.3261 126° Southeast 459 528 37,000 50 Climbing Jacksonville Center
Fri 09:46:51 PM 29.0594 -84.2086 126° Southeast 459 528 37,000 -50 Level Jacksonville Center
Fri 09:47:51 PM 28.9853 -84.0914 126° Southeast 459 528 36,900 -50 Descending Jacksonville Center
Fri 09:48:51 PM 28.9072 -83.9694 126° Southeast 466 536 36,900 50 Level Jacksonville Center
Fri 09:49:51 PM 28.8289 -83.8478 126° Southeast 466 536 37,000 50 Climbing Jacksonville Center
Fri 09:50:51 PM 28.7544 -83.7308 126° Southeast 466 536 37,000 -50 Level Jacksonville Center
Fri 09:51:51 PM 28.6781 -83.6142 127° Southeast 466 536 36,900  Descending Jacksonville Center
Fri 09:52:51 PM 28.6033 -83.4981 126° Southeast 460 529 37,000 32 Climbing Jacksonville Center
Fri 09:54:57 PM 28.4461 -83.2511 126° Southeast 476 548 37,000  Level Miami Center
Fri 09:55:57 PM 28.3578 -83.1236 128° Southeast 471 542 37,000  Level Miami Center
Fri 09:56:57 PM 28.2797 -82.9992 125° Southeast 478 550 37,000 -50 Level Miami Center
Fri 09:57:57 PM 28.2036 -82.8797 126° Southeast 477 549 36,900 -50 Descending Miami Center
Fri 09:58:57 PM 28.1231 -82.7578 127° Southeast 477 549 36,900  Level Miami Center
Fri 09:59:57 PM 28.0561 -82.6647 129° Southeast 477 549 36,900 50 Level Miami Center
Fri 10:00:57 PM 27.9522 -82.5492 135° Southeast 477 549 37,000 50 Climbing Miami Center
Fri 10:01:57 PM 27.8403 -82.4731 149° Southeast 471 542 37,000  Level Miami Center
Fri 10:02:57 PM 27.7047 -82.4219 162° South 462 532 37,000  Level Miami Center
Fri 10:03:57 PM 27.5833 -82.3761 161° South 462 532 37,000  Level Miami Center
Fri 10:04:57 PM 27.4744 -82.3336 161° South 462 532 37,000 -450 Level Miami Center
Fri 10:05:57 PM 27.3508 -82.2925 164° South 469 540 36,100 -1,200 Descending Miami Center
Fri 10:06:57 PM 27.2242 -82.2167 152° Southeast 469 540 34,600 -2,100 Descending Miami Center
Fri 10:07:57 PM 27.1233 -82.1186 139° Southeast 468 539 31,900 -2,450 Descending Miami Center
Fri 10:08:57 PM 27.0325 -82.0331 140° Southeast 478 550 29,700 -2,250 Descending Miami Center
Fri 10:09:57 PM 26.9281 -81.9236 137° Southeast 478 550 27,400 -2,250 Descending Miami Center
Fri 10:10:57 PM 26.8478 -81.8294 134° Southeast 465 535 25,200 -2,200 Descending Miami Center
Fri 10:11:57 PM 26.7633 -81.7281 133° Southeast 452 520 23,000 -2,150 Descending Miami Center
Fri 10:12:57 PM 26.6731 -81.6219 134° Southeast 440 506 20,900 -2,050 Descending Miami Center
Fri 10:13:57 PM 26.5986 -81.5356 134° Southeast 429 494 18,900 -2,150 Descending Miami Center
Fri 10:14:57 PM 26.5078 -81.4322 134° Southeast 422 486 16,600 -2,150 Descending Miami Center
Fri 10:15:57 PM 26.4294 -81.3386 133° Southeast 417 480 14,600 -1,950 Descending Miami Center
Fri 10:16:57 PM 26.3547 -81.2525 134° Southeast 405 466 12,700 -1,900 Descending Miami Center
Fri 10:17:57 PM 26.2842 -81.1711 134° Southeast 386 444 10,800 -1,300 Descending Miami Center
Fri 10:18:57 PM 26.2194 -81.0969 134° Southeast 364 419 10,100 -900 Descending Miami Center
Fri 10:19:57 PM 26.1628 -81.0325 134° Southeast 317 365 9,000 -1,050 Descending Miami Center
Fri 10:20:57 PM 26.1317 -80.9525 113° Southeast 276 318 8,000 -800 Descending Miami Center
Fri 10:21:12 PM 26.1239 -80.9339 115° Southeast 290 334 8,000  Level Miami Center
Fri 10:21:57 PM 26.1133 -80.8617 99° East 276 318 8,000  Level Miami Center
Fri 10:22:13 PM 26.1011 -80.8453 130° Southeast 291 335 8,000  Level Miami Center
Fri 10:22:57 PM 26.0883 -80.7778 102° East 281 323 8,000 -364 Level Miami Center
Fri 10:23:19 PM 26.0767 -80.7450 112° Southeast 293 337 7,600 -1,600 Descending Miami Center
Fri 10:23:57 PM 26.0781 -80.6917 88° East 281 323 6,400 -1,745 Descending Miami Center
Fri 10:24:14 PM 26.0744 -80.6708 101° East 281 323 6,000 -500 Descending Miami Center
Fri 10:24:57 PM 26.0803 -80.6108 84° East 274 315 5,900 -590 Descending Miami Center
Fri 10:25:15 PM 26.0789 -80.5856 93° East 255 293 5,400 -900 Descending Miami Center
Fri 10:25:57 PM 26.0800 -80.5347 89° East 260 299 5,000 -393 Descending Miami Center
Fri 10:26:16 PM 26.0764 -80.5114 100° East 227 261 5,000 -100 Level Miami Center
Fri 10:26:57 PM 26.0775 -80.4675 88° East 239 275 4,900 -295 Descending Miami Center
Fri 10:27:17 PM 26.0739 -80.4442 100° East 210 242 4,700 -700 Descending Miami Center
Fri 10:27:57 PM 26.0769 -80.4097 84° East 227 261 4,200 -1,300 Descending Miami Center
Fri 10:28:17 PM 26.0756 -80.3794 93° East 212 244 3,400 -1,241 Descending Miami Center
Fri 10:29:24 PM 26.0750 -80.3100 90° East 202 232 2,400 -934 Descending Miami Center
Fri 10:30:19 PM 26.0742 -80.2569 91° East 193 222 1,500 -891 Descending Miami Center
Fri 10:31:32 PM 26.0736 -80.1992 91° East 133 153 500 -822 Descending Miami Center
Fri 10:33:00 PM 26.0667 -80.1500 180° South  Level FlightAware Approximate

Login

Don't have an account? Register now (free) for customized features, flight alerts, and more!